sensor_id;sensor_type;location;lat;lon;timestamp;temperature;humidity
21944;DHT22;11136;48.778;9.126;2023-05-20T00:00:52;14.10;95.20
21944;DHT22;11136;48.778;9.126;2023-05-20T00:03:18;14.10;95.30
21944;DHT22;11136;48.778;9.126;2023-05-20T00:05:45;14.10;95.30
21944;DHT22;11136;48.778;9.126;2023-05-20T00:08:11;14.10;95.40
21944;DHT22;11136;48.778;9.126;2023-05-20T00:10:37;14.10;95.40
21944;DHT22;11136;48.778;9.126;2023-05-20T00:13:03;14.10;95.50
21944;DHT22;11136;48.778;9.126;2023-05-20T00:15:28;14.10;95.60
21944;DHT22;11136;48.778;9.126;2023-05-20T00:17:55;14.00;95.60
21944;DHT22;11136;48.778;9.126;2023-05-20T00:20:20;14.00;95.60
21944;DHT22;11136;48.778;9.126;2023-05-20T00:22:46;14.00;95.70
21944;DHT22;11136;48.778;9.126;2023-05-20T00:25:11;14.00;95.70
21944;DHT22;11136;48.778;9.126;2023-05-20T00:27:39;14.00;95.70
21944;DHT22;11136;48.778;9.126;2023-05-20T00:30:06;14.00;95.80
21944;DHT22;11136;48.778;9.126;2023-05-20T00:32:32;14.00;95.90
21944;DHT22;11136;48.778;9.126;2023-05-20T00:34:58;13.90;95.90
21944;DHT22;11136;48.778;9.126;2023-05-20T00:37:24;14.00;96.00
21944;DHT22;11136;48.778;9.126;2023-05-20T00:39:50;13.90;96.00
21944;DHT22;11136;48.778;9.126;2023-05-20T00:42:34;13.90;96.10
21944;DHT22;11136;48.778;9.126;2023-05-20T00:44:59;13.90;96.20
21944;DHT22;11136;48.778;9.126;2023-05-20T00:47:31;13.90;96.20
21944;DHT22;11136;48.778;9.126;2023-05-20T00:49:57;13.90;96.30
21944;DHT22;11136;48.778;9.126;2023-05-20T00:52:24;13.90;96.40
21944;DHT22;11136;48.778;9.126;2023-05-20T00:54:50;13.90;96.50
21944;DHT22;11136;48.778;9.126;2023-05-20T00:57:18;13.90;96.60
21944;DHT22;11136;48.778;9.126;2023-05-20T00:59:43;13.90;96.70
21944;DHT22;11136;48.778;9.126;2023-05-20T01:02:09;13.90;96.70
21944;DHT22;11136;48.778;9.126;2023-05-20T01:04:35;13.90;96.80
21944;DHT22;11136;48.778;9.126;2023-05-20T01:07:03;13.90;96.80
21944;DHT22;11136;48.778;9.126;2023-05-20T01:09:30;13.90;96.90
21944;DHT22;11136;48.778;9.126;2023-05-20T01:12:24;13.90;97.00
21944;DHT22;11136;48.778;9.126;2023-05-20T01:17:22;13.90;97.10
21944;DHT22;11136;48.778;9.126;2023-05-20T01:19:53;13.90;97.20
21944;DHT22;11136;48.778;9.126;2023-05-20T01:22:23;13.90;97.20
21944;DHT22;11136;48.778;9.126;2023-05-20T01:24:49;13.90;97.30
21944;DHT22;11136;48.778;9.126;2023-05-20T01:27:18;13.90;97.40
21944;DHT22;11136;48.778;9.126;2023-05-20T01:29:50;13.90;97.40
21944;DHT22;11136;48.778;9.126;2023-05-20T01:32:20;13.90;97.50
21944;DHT22;11136;48.778;9.126;2023-05-20T01:34:49;13.90;97.50
21944;DHT22;11136;48.778;9.126;2023-05-20T01:37:17;13.90;97.60
21944;DHT22;11136;48.778;9.126;2023-05-20T01:39:44;13.90;97.60
21944;DHT22;11136;48.778;9.126;2023-05-20T01:42:12;13.90;97.70
21944;DHT22;11136;48.778;9.126;2023-05-20T01:44:40;13.90;97.70
21944;DHT22;11136;48.778;9.126;2023-05-20T01:47:06;14.10;97.90
21944;DHT22;11136;48.778;9.126;2023-05-20T01:49:31;13.90;97.80
21944;DHT22;11136;48.778;9.126;2023-05-20T01:51:57;13.90;97.90
21944;DHT22;11136;48.778;9.126;2023-05-20T01:54:23;14.00;97.90
21944;DHT22;11136;48.778;9.126;2023-05-20T01:56:49;14.00;98.00
21944;DHT22;11136;48.778;9.126;2023-05-20T01:59:14;14.00;98.00
21944;DHT22;11136;48.778;9.126;2023-05-20T02:01:40;14.00;98.00
21944;DHT22;11136;48.778;9.126;2023-05-20T02:04:06;14.00;98.00
21944;DHT22;11136;48.778;9.126;2023-05-20T02:06:31;14.00;98.10
21944;DHT22;11136;48.778;9.126;2023-05-20T02:08:57;14.00;98.10
21944;DHT22;11136;48.778;9.126;2023-05-20T02:11:23;14.00;98.10
21944;DHT22;11136;48.778;9.126;2023-05-20T02:13:49;14.00;98.10
21944;DHT22;11136;48.778;9.126;2023-05-20T02:16:15;14.00;98.20
21944;DHT22;11136;48.778;9.126;2023-05-20T02:18:41;14.00;98.20
21944;DHT22;11136;48.778;9.126;2023-05-20T02:21:07;14.00;98.20
21944;DHT22;11136;48.778;9.126;2023-05-20T02:23:33;14.00;98.20
21944;DHT22;11136;48.778;9.126;2023-05-20T02:25:59;13.90;98.20
21944;DHT22;11136;48.778;9.126;2023-05-20T02:28:24;13.90;98.20
21944;DHT22;11136;48.778;9.126;2023-05-20T02:30:50;13.90;98.30
21944;DHT22;11136;48.778;9.126;2023-05-20T02:33:16;13.90;98.30
21944;DHT22;11136;48.778;9.126;2023-05-20T02:35:42;13.80;98.30
21944;DHT22;11136;48.778;9.126;2023-05-20T02:38:07;13.80;98.30
21944;DHT22;11136;48.778;9.126;2023-05-20T02:40:33;13.90;98.40
21944;DHT22;11136;48.778;9.126;2023-05-20T02:42:59;13.80;98.50
21944;DHT22;11136;48.778;9.126;2023-05-20T02:45:25;13.80;98.50
21944;DHT22;11136;48.778;9.126;2023-05-20T02:47:50;13.80;98.50
21944;DHT22;11136;48.778;9.126;2023-05-20T02:50:16;13.70;98.60
21944;DHT22;11136;48.778;9.126;2023-05-20T02:52:41;13.70;98.60
21944;DHT22;11136;48.778;9.126;2023-05-20T02:55:08;13.70;98.70
21944;DHT22;11136;48.778;9.126;2023-05-20T02:57:34;13.70;98.70
21944;DHT22;11136;48.778;9.126;2023-05-20T03:00:03;13.70;98.80
21944;DHT22;11136;48.778;9.126;2023-05-20T03:02:30;13.70;98.80
21944;DHT22;11136;48.778;9.126;2023-05-20T03:04:55;13.60;98.80
21944;DHT22;11136;48.778;9.126;2023-05-20T03:07:21;13.60;98.90
21944;DHT22;11136;48.778;9.126;2023-05-20T03:09:47;13.60;98.90
21944;DHT22;11136;48.778;9.126;2023-05-20T03:12:12;13.60;99.00
21944;DHT22;11136;48.778;9.126;2023-05-20T03:14:38;13.60;99.10
21944;DHT22;11136;48.778;9.126;2023-05-20T03:17:04;13.60;99.10
21944;DHT22;11136;48.778;9.126;2023-05-20T03:19:30;13.60;99.20
21944;DHT22;11136;48.778;9.126;2023-05-20T03:21:55;13.60;99.20
21944;DHT22;11136;48.778;9.126;2023-05-20T03:24:22;13.60;99.20
21944;DHT22;11136;48.778;9.126;2023-05-20T03:26:48;13.60;99.30
21944;DHT22;11136;48.778;9.126;2023-05-20T03:29:15;13.60;99.30
21944;DHT22;11136;48.778;9.126;2023-05-20T03:31:43;13.60;99.40
21944;DHT22;11136;48.778;9.126;2023-05-20T03:34:08;13.60;99.40
21944;DHT22;11136;48.778;9.126;2023-05-20T03:36:34;13.50;99.40
21944;DHT22;11136;48.778;9.126;2023-05-20T03:38:59;13.50;99.40
21944;DHT22;11136;48.778;9.126;2023-05-20T03:41:26;13.50;99.50
21944;DHT22;11136;48.778;9.126;2023-05-20T03:43:52;13.50;99.50
21944;DHT22;11136;48.778;9.126;2023-05-20T03:46:17;13.40;99.50
21944;DHT22;11136;48.778;9.126;2023-05-20T03:48:43;13.40;99.60
21944;DHT22;11136;48.778;9.126;2023-05-20T03:51:08;13.40;99.60
21944;DHT22;11136;48.778;9.126;2023-05-20T03:53:34;13.40;99.70
21944;DHT22;11136;48.778;9.126;2023-05-20T03:55:59;13.40;99.80
21944;DHT22;11136;48.778;9.126;2023-05-20T03:58:25;13.40;99.80
21944;DHT22;11136;48.778;9.126;2023-05-20T04:00:54;13.40;99.90
21944;DHT22;11136;48.778;9.126;2023-05-20T04:03:19;13.40;99.90
21944;DHT22;11136;48.778;9.126;2023-05-20T04:05:47;13.40;99.90
21944;DHT22;11136;48.778;9.126;2023-05-20T04:08:12;13.40;99.90
21944;DHT22;11136;48.778;9.126;2023-05-20T04:10:40;13.40;99.90
21944;DHT22;11136;48.778;9.126;2023-05-20T04:13:07;13.40;99.90
21944;DHT22;11136;48.778;9.126;2023-05-20T04:15:35;13.40;99.90
21944;DHT22;11136;48.778;9.126;2023-05-20T04:18:01;13.40;99.90
21944;DHT22;11136;48.778;9.126;2023-05-20T04:20:26;13.40;99.90
21944;DHT22;11136;48.778;9.126;2023-05-20T04:22:52;13.40;99.90
21944;DHT22;11136;48.778;9.126;2023-05-20T04:25:18;13.50;99.90
21944;DHT22;11136;48.778;9.126;2023-05-20T04:27:44;13.50;99.90
21944;DHT22;11136;48.778;9.126;2023-05-20T04:30:10;13.50;99.90
21944;DHT22;11136;48.778;9.126;2023-05-20T04:32:36;13.60;99.90
21944;DHT22;11136;48.778;9.126;2023-05-20T04:35:03;13.50;99.90
21944;DHT22;11136;48.778;9.126;2023-05-20T04:37:32;13.60;99.90
21944;DHT22;11136;48.778;9.126;2023-05-20T04:39:59;13.60;99.90
21944;DHT22;11136;48.778;9.126;2023-05-20T04:42:29;13.60;99.90
21944;DHT22;11136;48.778;9.126;2023-05-20T04:44:54;13.60;99.90
21944;DHT22;11136;48.778;9.126;2023-05-20T04:47:20;13.60;99.90
21944;DHT22;11136;48.778;9.126;2023-05-20T04:49:45;13.70;99.90
21944;DHT22;11136;48.778;9.126;2023-05-20T04:52:11;13.70;99.90
21944;DHT22;11136;48.778;9.126;2023-05-20T04:54:36;13.70;99.90
21944;DHT22;11136;48.778;9.126;2023-05-20T04:57:02;13.70;99.90
21944;DHT22;11136;48.778;9.126;2023-05-20T04:59:28;13.80;99.90
21944;DHT22;11136;48.778;9.126;2023-05-20T05:01:54;13.80;99.90
21944;DHT22;11136;48.778;9.126;2023-05-20T05:04:19;13.80;99.90
21944;DHT22;11136;48.778;9.126;2023-05-20T05:06:47;13.80;99.90
21944;DHT22;11136;48.778;9.126;2023-05-20T05:09:13;13.80;99.90
21944;DHT22;11136;48.778;9.126;2023-05-20T05:11:38;13.90;99.90
21944;DHT22;11136;48.778;9.126;2023-05-20T05:14:04;13.90;99.90
21944;DHT22;11136;48.778;9.126;2023-05-20T05:16:29;13.90;99.90
21944;DHT22;11136;48.778;9.126;2023-05-20T05:18:55;14.00;99.90
21944;DHT22;11136;48.778;9.126;2023-05-20T05:21:20;14.00;99.90
21944;DHT22;11136;48.778;9.126;2023-05-20T05:23:46;14.00;99.90
21944;DHT22;11136;48.778;9.126;2023-05-20T05:26:12;14.00;99.90
21944;DHT22;11136;48.778;9.126;2023-05-20T05:28:39;14.00;99.90
21944;DHT22;11136;48.778;9.126;2023-05-20T05:31:05;14.10;99.90
21944;DHT22;11136;48.778;9.126;2023-05-20T05:33:31;14.10;99.90
21944;DHT22;11136;48.778;9.126;2023-05-20T05:35:57;14.20;99.90
21944;DHT22;11136;48.778;9.126;2023-05-20T05:38:23;14.20;99.90
21944;DHT22;11136;48.778;9.126;2023-05-20T05:40:49;14.20;99.90
21944;DHT22;11136;48.778;9.126;2023-05-20T05:43:14;14.30;99.90
21944;DHT22;11136;48.778;9.126;2023-05-20T05:45:40;14.30;99.90
21944;DHT22;11136;48.778;9.126;2023-05-20T05:48:07;14.30;99.90
21944;DHT22;11136;48.778;9.126;2023-05-20T05:50:33;14.40;99.90
21944;DHT22;11136;48.778;9.126;2023-05-20T05:52:58;14.50;99.90
21944;DHT22;11136;48.778;9.126;2023-05-20T05:55:24;14.50;99.90
21944;DHT22;11136;48.778;9.126;2023-05-20T05:57:50;14.50;99.90
21944;DHT22;11136;48.778;9.126;2023-05-20T06:00:15;14.60;99.90
21944;DHT22;11136;48.778;9.126;2023-05-20T06:02:41;14.60;99.90
21944;DHT22;11136;48.778;9.126;2023-05-20T06:05:08;14.60;99.90
21944;DHT22;11136;48.778;9.126;2023-05-20T06:07:33;14.70;99.90
21944;DHT22;11136;48.778;9.126;2023-05-20T06:09:59;14.70;99.90
21944;DHT22;11136;48.778;9.126;2023-05-20T06:12:25;14.70;99.90
21944;DHT22;11136;48.778;9.126;2023-05-20T06:14:50;14.80;99.90
21944;DHT22;11136;48.778;9.126;2023-05-20T06:17:16;14.80;99.90
21944;DHT22;11136;48.778;9.126;2023-05-20T06:19:41;14.90;99.90
21944;DHT22;11136;48.778;9.126;2023-05-20T06:22:07;14.90;99.90
21944;DHT22;11136;48.778;9.126;2023-05-20T06:24:33;15.00;99.90
21944;DHT22;11136;48.778;9.126;2023-05-20T06:26:59;15.10;99.90
21944;DHT22;11136;48.778;9.126;2023-05-20T06:29:25;15.10;99.90
21944;DHT22;11136;48.778;9.126;2023-05-20T06:31:50;15.20;99.90
21944;DHT22;11136;48.778;9.126;2023-05-20T06:34:16;15.20;99.90
21944;DHT22;11136;48.778;9.126;2023-05-20T06:36:41;15.30;99.90
21944;DHT22;11136;48.778;9.126;2023-05-20T06:39:07;15.30;99.90
21944;DHT22;11136;48.778;9.126;2023-05-20T06:41:37;15.30;99.90
21944;DHT22;11136;48.778;9.126;2023-05-20T06:44:03;15.40;99.90
21944;DHT22;11136;48.778;9.126;2023-05-20T06:46:29;15.50;99.90
21944;DHT22;11136;48.778;9.126;2023-05-20T06:48:54;15.50;99.90
21944;DHT22;11136;48.778;9.126;2023-05-20T06:51:20;15.50;99.90
21944;DHT22;11136;48.778;9.126;2023-05-20T06:53:46;15.60;99.90
21944;DHT22;11136;48.778;9.126;2023-05-20T06:56:12;15.60;99.90
21944;DHT22;11136;48.778;9.126;2023-05-20T06:58:37;15.70;99.90
21944;DHT22;11136;48.778;9.126;2023-05-20T07:01:03;15.80;99.90
21944;DHT22;11136;48.778;9.126;2023-05-20T07:03:28;15.90;99.90
21944;DHT22;11136;48.778;9.126;2023-05-20T07:05:54;15.90;99.90
21944;DHT22;11136;48.778;9.126;2023-05-20T07:08:20;16.00;99.90
21944;DHT22;11136;48.778;9.126;2023-05-20T07:10:45;16.10;99.90
21944;DHT22;11136;48.778;9.126;2023-05-20T07:13:11;16.00;99.90
21944;DHT22;11136;48.778;9.126;2023-05-20T07:15:37;16.20;99.90
21944;DHT22;11136;48.778;9.126;2023-05-20T07:18:02;16.20;99.90
21944;DHT22;11136;48.778;9.126;2023-05-20T07:20:28;16.20;99.90
21944;DHT22;11136;48.778;9.126;2023-05-20T07:22:53;16.20;99.90
21944;DHT22;11136;48.778;9.126;2023-05-20T07:25:19;16.30;99.90
21944;DHT22;11136;48.778;9.126;2023-05-20T07:27:45;16.30;99.90
21944;DHT22;11136;48.778;9.126;2023-05-20T07:30:11;16.40;99.90
21944;DHT22;11136;48.778;9.126;2023-05-20T07:32:36;16.40;99.90
21944;DHT22;11136;48.778;9.126;2023-05-20T07:35:02;16.60;99.90
21944;DHT22;11136;48.778;9.126;2023-05-20T07:37:28;16.60;99.90
21944;DHT22;11136;48.778;9.126;2023-05-20T07:39:53;16.60;99.90
21944;DHT22;11136;48.778;9.126;2023-05-20T07:42:19;16.80;99.90
21944;DHT22;11136;48.778;9.126;2023-05-20T07:44:45;16.80;99.90
21944;DHT22;11136;48.778;9.126;2023-05-20T07:47:11;17.00;99.90
21944;DHT22;11136;48.778;9.126;2023-05-20T07:49:37;17.10;99.90
21944;DHT22;11136;48.778;9.126;2023-05-20T07:52:02;17.40;99.90
21944;DHT22;11136;48.778;9.126;2023-05-20T07:54:28;17.20;99.90
21944;DHT22;11136;48.778;9.126;2023-05-20T07:56:54;17.30;99.90
21944;DHT22;11136;48.778;9.126;2023-05-20T07:59:19;17.40;99.90
21944;DHT22;11136;48.778;9.126;2023-05-20T08:01:45;17.60;99.90
21944;DHT22;11136;48.778;9.126;2023-05-20T08:04:11;17.50;99.80
21944;DHT22;11136;48.778;9.126;2023-05-20T08:06:37;17.50;99.60
21944;DHT22;11136;48.778;9.126;2023-05-20T08:09:03;17.60;99.50
21944;DHT22;11136;48.778;9.126;2023-05-20T08:11:28;17.60;99.50
21944;DHT22;11136;48.778;9.126;2023-05-20T08:13:54;17.70;99.40
21944;DHT22;11136;48.778;9.126;2023-05-20T08:16:22;17.70;99.40
21944;DHT22;11136;48.778;9.126;2023-05-20T08:18:47;17.80;99.30
21944;DHT22;11136;48.778;9.126;2023-05-20T08:21:13;17.80;99.30
21944;DHT22;11136;48.778;9.126;2023-05-20T08:23:40;17.80;99.10
21944;DHT22;11136;48.778;9.126;2023-05-20T08:26:05;18.00;99.10
21944;DHT22;11136;48.778;9.126;2023-05-20T08:28:32;17.80;99.00
21944;DHT22;11136;48.778;9.126;2023-05-20T08:30:59;17.80;98.90
21944;DHT22;11136;48.778;9.126;2023-05-20T08:33:25;17.80;98.80
21944;DHT22;11136;48.778;9.126;2023-05-20T08:35:51;17.80;98.80
21944;DHT22;11136;48.778;9.126;2023-05-20T08:38:17;17.80;98.70
21944;DHT22;11136;48.778;9.126;2023-05-20T08:40:42;17.90;98.70
21944;DHT22;11136;48.778;9.126;2023-05-20T08:43:08;17.80;98.70
21944;DHT22;11136;48.778;9.126;2023-05-20T08:45:36;17.90;98.80
21944;DHT22;11136;48.778;9.126;2023-05-20T08:48:03;17.90;98.70
21944;DHT22;11136;48.778;9.126;2023-05-20T08:50:32;18.00;99.10
21944;DHT22;11136;48.778;9.126;2023-05-20T08:52:58;18.10;98.90
21944;DHT22;11136;48.778;9.126;2023-05-20T08:57:53;18.40;98.80
21944;DHT22;11136;48.778;9.126;2023-05-20T09:00:20;18.50;98.50
21944;DHT22;11136;48.778;9.126;2023-05-20T09:02:48;18.50;98.30
21944;DHT22;11136;48.778;9.126;2023-05-20T09:05:13;18.60;98.10
21944;DHT22;11136;48.778;9.126;2023-05-20T09:07:39;18.70;98.10
21944;DHT22;11136;48.778;9.126;2023-05-20T09:10:07;18.70;98.00
21944;DHT22;11136;48.778;9.126;2023-05-20T09:12:34;18.90;98.20
21944;DHT22;11136;48.778;9.126;2023-05-20T09:15:00;18.90;97.70
21944;DHT22;11136;48.778;9.126;2023-05-20T09:17:25;19.00;97.80
21944;DHT22;11136;48.778;9.126;2023-05-20T09:19:54;19.20;97.90
21944;DHT22;11136;48.778;9.126;2023-05-20T09:22:24;19.50;97.50
21944;DHT22;11136;48.778;9.126;2023-05-20T09:24:50;19.50;96.80
21944;DHT22;11136;48.778;9.126;2023-05-20T09:27:17;19.50;96.80
21944;DHT22;11136;48.778;9.126;2023-05-20T09:29:43;19.70;96.90
21944;DHT22;11136;48.778;9.126;2023-05-20T09:32:10;19.80;96.80
21944;DHT22;11136;48.778;9.126;2023-05-20T09:34:36;20.10;96.80
21944;DHT22;11136;48.778;9.126;2023-05-20T09:37:02;20.40;96.70
21944;DHT22;11136;48.778;9.126;2023-05-20T09:39:34;20.70;96.40
21944;DHT22;11136;48.778;9.126;2023-05-20T09:42:06;20.90;95.60
21944;DHT22;11136;48.778;9.126;2023-05-20T09:44:34;21.20;95.00
21944;DHT22;11136;48.778;9.126;2023-05-20T09:47:00;21.30;94.10
21944;DHT22;11136;48.778;9.126;2023-05-20T09:49:27;21.40;94.00
21944;DHT22;11136;48.778;9.126;2023-05-20T09:51:54;21.40;93.40
21944;DHT22;11136;48.778;9.126;2023-05-20T09:54:22;21.40;93.00
21944;DHT22;11136;48.778;9.126;2023-05-20T09:56:49;21.40;93.10
21944;DHT22;11136;48.778;9.126;2023-05-20T09:59:15;21.50;93.00
21944;DHT22;11136;48.778;9.126;2023-05-20T10:01:42;21.50;92.80
21944;DHT22;11136;48.778;9.126;2023-05-20T10:04:09;21.70;92.60
21944;DHT22;11136;48.778;9.126;2023-05-20T10:06:49;21.70;92.40
21944;DHT22;11136;48.778;9.126;2023-05-20T10:12:20;22.00;91.80
21944;DHT22;11136;48.778;9.126;2023-05-20T10:15:09;22.10;91.70
21944;DHT22;11136;48.778;9.126;2023-05-20T10:17:43;22.30;91.50
21944;DHT22;11136;48.778;9.126;2023-05-20T10:20:09;22.40;91.30
21944;DHT22;11136;48.778;9.126;2023-05-20T10:22:38;22.50;91.00
21944;DHT22;11136;48.778;9.126;2023-05-20T10:25:22;22.60;90.60
21944;DHT22;11136;48.778;9.126;2023-05-20T10:27:49;22.60;90.10
21944;DHT22;11136;48.778;9.126;2023-05-20T10:30:20;22.50;90.00
21944;DHT22;11136;48.778;9.126;2023-05-20T10:32:54;22.50;89.40
21944;DHT22;11136;48.778;9.126;2023-05-20T10:35:25;22.40;89.30
21944;DHT22;11136;48.778;9.126;2023-05-20T10:37:52;22.50;89.30
21944;DHT22;11136;48.778;9.126;2023-05-20T10:40:21;22.40;89.00
21944;DHT22;11136;48.778;9.126;2023-05-20T10:42:47;22.40;89.10
21944;DHT22;11136;48.778;9.126;2023-05-20T10:45:26;22.50;89.10
21944;DHT22;11136;48.778;9.126;2023-05-20T10:47:57;22.40;88.00
21944;DHT22;11136;48.778;9.126;2023-05-20T10:50:36;22.30;88.20
21944;DHT22;11136;48.778;9.126;2023-05-20T10:53:04;22.20;88.50
21944;DHT22;11136;48.778;9.126;2023-05-20T10:55:40;22.20;88.80
21944;DHT22;11136;48.778;9.126;2023-05-20T10:58:13;22.20;88.70
21944;DHT22;11136;48.778;9.126;2023-05-20T11:00:41;22.30;88.90
21944;DHT22;11136;48.778;9.126;2023-05-20T11:03:07;22.40;89.10
21944;DHT22;11136;48.778;9.126;2023-05-20T11:05:33;22.30;89.00
21944;DHT22;11136;48.778;9.126;2023-05-20T11:08:03;22.30;88.80
21944;DHT22;11136;48.778;9.126;2023-05-20T11:10:29;22.40;88.40
21944;DHT22;11136;48.778;9.126;2023-05-20T11:12:56;22.40;88.30
21944;DHT22;11136;48.778;9.126;2023-05-20T11:15:22;22.70;88.40
21944;DHT22;11136;48.778;9.126;2023-05-20T11:17:53;22.50;88.30
21944;DHT22;11136;48.778;9.126;2023-05-20T11:20:21;22.70;87.80
21944;DHT22;11136;48.778;9.126;2023-05-20T11:22:48;22.80;87.10
21944;DHT22;11136;48.778;9.126;2023-05-20T11:25:16;22.90;86.70
21944;DHT22;11136;48.778;9.126;2023-05-20T11:27:42;23.00;86.10
21944;DHT22;11136;48.778;9.126;2023-05-20T11:30:09;23.00;85.50
21944;DHT22;11136;48.778;9.126;2023-05-20T11:32:35;23.20;85.00
21944;DHT22;11136;48.778;9.126;2023-05-20T11:35:01;23.30;84.60
21944;DHT22;11136;48.778;9.126;2023-05-20T11:37:29;23.40;84.50
21944;DHT22;11136;48.778;9.126;2023-05-20T11:40:03;23.50;84.00
21944;DHT22;11136;48.778;9.126;2023-05-20T11:42:32;23.60;83.20
21944;DHT22;11136;48.778;9.126;2023-05-20T11:44:59;23.60;82.40
21944;DHT22;11136;48.778;9.126;2023-05-20T11:47:25;23.60;81.90
21944;DHT22;11136;48.778;9.126;2023-05-20T11:49:51;23.60;81.80
21944;DHT22;11136;48.778;9.126;2023-05-20T11:52:17;23.50;81.60
21944;DHT22;11136;48.778;9.126;2023-05-20T11:54:43;23.50;81.30
21944;DHT22;11136;48.778;9.126;2023-05-20T11:57:12;23.50;81.00
21944;DHT22;11136;48.778;9.126;2023-05-20T11:59:38;23.50;80.70
21944;DHT22;11136;48.778;9.126;2023-05-20T12:02:03;23.50;80.90
21944;DHT22;11136;48.778;9.126;2023-05-20T12:04:29;23.40;80.10
21944;DHT22;11136;48.778;9.126;2023-05-20T12:06:55;23.30;80.50
21944;DHT22;11136;48.778;9.126;2023-05-20T12:09:20;23.30;80.40
21944;DHT22;11136;48.778;9.126;2023-05-20T12:11:46;23.30;80.20
21944;DHT22;11136;48.778;9.126;2023-05-20T12:14:12;23.40;80.10
21944;DHT22;11136;48.778;9.126;2023-05-20T12:16:38;23.40;80.70
21944;DHT22;11136;48.778;9.126;2023-05-20T12:19:03;23.50;81.60
21944;DHT22;11136;48.778;9.126;2023-05-20T12:21:30;23.80;80.90
21944;DHT22;11136;48.778;9.126;2023-05-20T12:23:57;24.10;80.50
21944;DHT22;11136;48.778;9.126;2023-05-20T12:26:23;24.40;80.00
21944;DHT22;11136;48.778;9.126;2023-05-20T12:28:50;24.80;79.30
21944;DHT22;11136;48.778;9.126;2023-05-20T12:31:15;25.10;78.20
21944;DHT22;11136;48.778;9.126;2023-05-20T12:33:41;25.40;76.80
21944;DHT22;11136;48.778;9.126;2023-05-20T12:36:07;25.70;75.80
21944;DHT22;11136;48.778;9.126;2023-05-20T12:38:33;26.00;75.20
21944;DHT22;11136;48.778;9.126;2023-05-20T12:40:59;26.30;74.30
21944;DHT22;11136;48.778;9.126;2023-05-20T12:43:24;26.80;74.20
21944;DHT22;11136;48.778;9.126;2023-05-20T12:45:50;27.20;73.30
21944;DHT22;11136;48.778;9.126;2023-05-20T12:48:16;27.80;73.00
21944;DHT22;11136;48.778;9.126;2023-05-20T12:50:42;28.40;70.90
21944;DHT22;11136;48.778;9.126;2023-05-20T12:53:08;28.90;68.80
21944;DHT22;11136;48.778;9.126;2023-05-20T12:55:34;29.20;67.00
21944;DHT22;11136;48.778;9.126;2023-05-20T12:57:59;29.30;65.80
21944;DHT22;11136;48.778;9.126;2023-05-20T13:00:25;29.20;64.20
21944;DHT22;11136;48.778;9.126;2023-05-20T13:02:51;29.10;63.30
21944;DHT22;11136;48.778;9.126;2023-05-20T13:05:17;29.10;62.90
21944;DHT22;11136;48.778;9.126;2023-05-20T13:07:43;29.10;62.10
21944;DHT22;11136;48.778;9.126;2023-05-20T13:10:09;28.80;61.70
21944;DHT22;11136;48.778;9.126;2023-05-20T13:12:35;28.60;62.10
21944;DHT22;11136;48.778;9.126;2023-05-20T13:15:01;28.50;61.90
21944;DHT22;11136;48.778;9.126;2023-05-20T13:17:27;28.80;63.10
21944;DHT22;11136;48.778;9.126;2023-05-20T13:19:54;29.50;63.80
21944;DHT22;11136;48.778;9.126;2023-05-20T13:22:19;30.90;62.40
21944;DHT22;11136;48.778;9.126;2023-05-20T13:24:45;31.90;60.10
21944;DHT22;11136;48.778;9.126;2023-05-20T13:27:11;32.90;58.70
21944;DHT22;11136;48.778;9.126;2023-05-20T13:29:36;33.60;57.10
21944;DHT22;11136;48.778;9.126;2023-05-20T13:32:02;34.40;56.00
21944;DHT22;11136;48.778;9.126;2023-05-20T13:34:28;35.20;54.40
21944;DHT22;11136;48.778;9.126;2023-05-20T13:36:54;36.10;53.10
21944;DHT22;11136;48.778;9.126;2023-05-20T13:39:20;36.50;51.10
21944;DHT22;11136;48.778;9.126;2023-05-20T13:41:45;36.10;49.40
21944;DHT22;11136;48.778;9.126;2023-05-20T13:44:11;35.30;48.90
21944;DHT22;11136;48.778;9.126;2023-05-20T13:46:37;34.40;48.40
21944;DHT22;11136;48.778;9.126;2023-05-20T13:49:02;33.60;49.10
21944;DHT22;11136;48.778;9.126;2023-05-20T13:51:29;32.90;49.90
21944;DHT22;11136;48.778;9.126;2023-05-20T13:53:56;32.70;50.60
21944;DHT22;11136;48.778;9.126;2023-05-20T13:56:23;32.40;50.60
21944;DHT22;11136;48.778;9.126;2023-05-20T13:58:49;32.20;50.40
21944;DHT22;11136;48.778;9.126;2023-05-20T14:01:14;32.40;50.70
21944;DHT22;11136;48.778;9.126;2023-05-20T14:03:40;32.30;50.40
21944;DHT22;11136;48.778;9.126;2023-05-20T14:06:06;31.90;50.20
21944;DHT22;11136;48.778;9.126;2023-05-20T14:08:32;31.30;50.00
21944;DHT22;11136;48.778;9.126;2023-05-20T14:10:58;30.90;50.80
21944;DHT22;11136;48.778;9.126;2023-05-20T14:13:24;30.70;51.80
21944;DHT22;11136;48.778;9.126;2023-05-20T14:15:50;30.10;52.20
21944;DHT22;11136;48.778;9.126;2023-05-20T14:18:17;29.80;52.80
21944;DHT22;11136;48.778;9.126;2023-05-20T14:20:43;29.50;53.10
21944;DHT22;11136;48.778;9.126;2023-05-20T14:23:10;29.20;53.30
21944;DHT22;11136;48.778;9.126;2023-05-20T14:25:36;28.90;53.70
21944;DHT22;11136;48.778;9.126;2023-05-20T14:28:01;28.70;54.60
21944;DHT22;11136;48.778;9.126;2023-05-20T14:30:30;28.90;55.30
21944;DHT22;11136;48.778;9.126;2023-05-20T14:32:55;29.10;55.30
21944;DHT22;11136;48.778;9.126;2023-05-20T14:35:21;29.30;55.30
21944;DHT22;11136;48.778;9.126;2023-05-20T14:37:47;29.40;55.00
21944;DHT22;11136;48.778;9.126;2023-05-20T14:40:13;29.60;55.00
21944;DHT22;11136;48.778;9.126;2023-05-20T14:42:39;29.60;54.90
21944;DHT22;11136;48.778;9.126;2023-05-20T14:45:05;29.90;55.00
21944;DHT22;11136;48.778;9.126;2023-05-20T14:47:32;29.70;54.60
21944;DHT22;11136;48.778;9.126;2023-05-20T14:49:57;29.50;54.10
21944;DHT22;11136;48.778;9.126;2023-05-20T14:52:23;29.30;54.50
21944;DHT22;11136;48.778;9.126;2023-05-20T14:54:49;29.40;54.70
21944;DHT22;11136;48.778;9.126;2023-05-20T14:57:15;29.20;54.70
21944;DHT22;11136;48.778;9.126;2023-05-20T14:59:41;29.10;54.60
21944;DHT22;11136;48.778;9.126;2023-05-20T15:02:07;29.10;54.60
21944;DHT22;11136;48.778;9.126;2023-05-20T15:04:33;28.70;54.60
21944;DHT22;11136;48.778;9.126;2023-05-20T15:06:59;28.60;54.70
21944;DHT22;11136;48.778;9.126;2023-05-20T15:09:25;28.40;54.70
21944;DHT22;11136;48.778;9.126;2023-05-20T15:11:51;28.30;54.70
21944;DHT22;11136;48.778;9.126;2023-05-20T15:14:16;28.20;55.00
21944;DHT22;11136;48.778;9.126;2023-05-20T15:16:42;28.10;55.00
21944;DHT22;11136;48.778;9.126;2023-05-20T15:19:09;28.00;55.00
21944;DHT22;11136;48.778;9.126;2023-05-20T15:21:35;28.00;55.20
21944;DHT22;11136;48.778;9.126;2023-05-20T15:24:00;27.80;55.40
21944;DHT22;11136;48.778;9.126;2023-05-20T15:26:28;27.60;55.60
21944;DHT22;11136;48.778;9.126;2023-05-20T15:28:54;27.40;55.80
21944;DHT22;11136;48.778;9.126;2023-05-20T15:31:21;27.40;56.30
21944;DHT22;11136;48.778;9.126;2023-05-20T15:33:47;27.40;56.70